sensor_id;sensor_type;location;lat;lon;timestamp;P1;durP1;ratioP1;P2;durP2;ratioP2
69822;SDS011;57119;52.516;13.508;2022-10-16T00:01:30;7.83;;;4.53;;
69822;SDS011;57119;52.516;13.508;2022-10-16T00:03:56;7.57;;;4.55;;
69822;SDS011;57119;52.516;13.508;2022-10-16T00:06:23;8.13;;;4.90;;
69822;SDS011;57119;52.516;13.508;2022-10-16T00:08:50;7.45;;;3.80;;
69822;SDS011;57119;52.516;13.508;2022-10-16T00:11:17;7.85;;;4.55;;
69822;SDS011;57119;52.516;13.508;2022-10-16T00:13:44;8.32;;;4.50;;
69822;SDS011;57119;52.516;13.508;2022-10-16T00:16:12;7.90;;;4.63;;
69822;SDS011;57119;52.516;13.508;2022-10-16T00:18:41;9.77;;;5.43;;
69822;SDS011;57119;52.516;13.508;2022-10-16T00:21:08;8.50;;;4.70;;
69822;SDS011;57119;52.516;13.508;2022-10-16T00:23:35;7.68;;;4.53;;
69822;SDS011;57119;52.516;13.508;2022-10-16T00:26:02;8.95;;;4.57;;
69822;SDS011;57119;52.516;13.508;2022-10-16T00:28:30;8.15;;;4.13;;
69822;SDS011;57119;52.516;13.508;2022-10-16T00:30:56;7.37;;;3.73;;
69822;SDS011;57119;52.516;13.508;2022-10-16T00:33:22;9.88;;;4.15;;
69822;SDS011;57119;52.516;13.508;2022-10-16T00:35:48;7.53;;;3.53;;
69822;SDS011;57119;52.516;13.508;2022-10-16T00:38:13;7.68;;;3.70;;
69822;SDS011;57119;52.516;13.508;2022-10-16T00:40:39;8.30;;;3.23;;
69822;SDS011;57119;52.516;13.508;2022-10-16T00:45:58;7.43;;;3.70;;
69822;SDS011;57119;52.516;13.508;2022-10-16T00:48:24;5.53;;;2.97;;
69822;SDS011;57119;52.516;13.508;2022-10-16T00:50:50;6.03;;;3.38;;
69822;SDS011;57119;52.516;13.508;2022-10-16T00:53:16;5.93;;;3.20;;
69822;SDS011;57119;52.516;13.508;2022-10-16T00:55:42;6.45;;;3.30;;
69822;SDS011;57119;52.516;13.508;2022-10-16T00:58:07;7.20;;;3.33;;
69822;SDS011;57119;52.516;13.508;2022-10-16T01:00:34;6.63;;;3.03;;
69822;SDS011;57119;52.516;13.508;2022-10-16T01:03:00;6.47;;;3.03;;
69822;SDS011;57119;52.516;13.508;2022-10-16T01:05:28;6.03;;;2.53;;
69822;SDS011;57119;52.516;13.508;2022-10-16T01:08:01;5.90;;;2.88;;
69822;SDS011;57119;52.516;13.508;2022-10-16T01:11:00;6.45;;;2.95;;
69822;SDS011;57119;52.516;13.508;2022-10-16T01:13:41;7.70;;;3.03;;
69822;SDS011;57119;52.516;13.508;2022-10-16T01:16:15;6.28;;;2.65;;
69822;SDS011;57119;52.516;13.508;2022-10-16T01:18:55;6.33;;;2.40;;
69822;SDS011;57119;52.516;13.508;2022-10-16T01:21:32;5.82;;;2.95;;
69822;SDS011;57119;52.516;13.508;2022-10-16T01:24:04;6.68;;;2.80;;
69822;SDS011;57119;52.516;13.508;2022-10-16T01:29:27;6.55;;;2.90;;
69822;SDS011;57119;52.516;13.508;2022-10-16T01:31:55;6.17;;;2.90;;
69822;SDS011;57119;52.516;13.508;2022-10-16T01:34:25;6.63;;;3.00;;
69822;SDS011;57119;52.516;13.508;2022-10-16T01:37:05;6.97;;;3.03;;
69822;SDS011;57119;52.516;13.508;2022-10-16T01:39:37;6.45;;;2.72;;
69822;SDS011;57119;52.516;13.508;2022-10-16T01:42:05;5.53;;;2.60;;
69822;SDS011;57119;52.516;13.508;2022-10-16T01:44:34;5.37;;;2.47;;
69822;SDS011;57119;52.516;13.508;2022-10-16T01:47:01;5.63;;;2.80;;
69822;SDS011;57119;52.516;13.508;2022-10-16T01:49:30;6.20;;;2.83;;
69822;SDS011;57119;52.516;13.508;2022-10-16T01:51:59;7.70;;;2.47;;
69822;SDS011;57119;52.516;13.508;2022-10-16T01:54:27;6.43;;;2.50;;
69822;SDS011;57119;52.516;13.508;2022-10-16T01:56:55;7.03;;;2.47;;
69822;SDS011;57119;52.516;13.508;2022-10-16T01:59:23;6.13;;;2.85;;
69822;SDS011;57119;52.516;13.508;2022-10-16T02:01:52;5.55;;;2.60;;
69822;SDS011;57119;52.516;13.508;2022-10-16T02:04:24;5.93;;;2.60;;
69822;SDS011;57119;52.516;13.508;2022-10-16T02:06:59;6.05;;;2.67;;
69822;SDS011;57119;52.516;13.508;2022-10-16T02:09:25;6.53;;;3.07;;
69822;SDS011;57119;52.516;13.508;2022-10-16T02:11:51;5.43;;;2.38;;
69822;SDS011;57119;52.516;13.508;2022-10-16T02:14:19;6.17;;;2.23;;
69822;SDS011;57119;52.516;13.508;2022-10-16T02:16:47;5.38;;;2.50;;
69822;SDS011;57119;52.516;13.508;2022-10-16T02:19:12;4.80;;;2.33;;
69822;SDS011;57119;52.516;13.508;2022-10-16T02:21:42;5.50;;;2.60;;
69822;SDS011;57119;52.516;13.508;2022-10-16T02:27:03;9.10;;;2.38;;
69822;SDS011;57119;52.516;13.508;2022-10-16T02:29:30;5.65;;;2.15;;
69822;SDS011;57119;52.516;13.508;2022-10-16T02:32:03;6.35;;;2.60;;
69822;SDS011;57119;52.516;13.508;2022-10-16T02:34:31;8.57;;;2.30;;
69822;SDS011;57119;52.516;13.508;2022-10-16T02:36:58;5.32;;;2.15;;
69822;SDS011;57119;52.516;13.508;2022-10-16T02:39:27;5.13;;;2.20;;
69822;SDS011;57119;52.516;13.508;2022-10-16T02:41:53;4.60;;;1.98;;
69822;SDS011;57119;52.516;13.508;2022-10-16T02:44:19;4.73;;;2.13;;
69822;SDS011;57119;52.516;13.508;2022-10-16T02:46:44;5.72;;;2.70;;
69822;SDS011;57119;52.516;13.508;2022-10-16T02:49:10;6.07;;;2.50;;
69822;SDS011;57119;52.516;13.508;2022-10-16T02:51:35;5.00;;;2.30;;
69822;SDS011;57119;52.516;13.508;2022-10-16T02:54:01;5.83;;;2.43;;
69822;SDS011;57119;52.516;13.508;2022-10-16T02:56:27;5.22;;;2.42;;
69822;SDS011;57119;52.516;13.508;2022-10-16T02:58:52;5.13;;;2.20;;
69822;SDS011;57119;52.516;13.508;2022-10-16T03:01:17;5.10;;;2.10;;
69822;SDS011;57119;52.516;13.508;2022-10-16T03:03:43;5.03;;;2.27;;
69822;SDS011;57119;52.516;13.508;2022-10-16T03:06:08;5.50;;;2.50;;
69822;SDS011;57119;52.516;13.508;2022-10-16T03:08:34;5.20;;;1.80;;
69822;SDS011;57119;52.516;13.508;2022-10-16T03:10:59;4.77;;;2.03;;
69822;SDS011;57119;52.516;13.508;2022-10-16T03:13:25;6.28;;;1.80;;
69822;SDS011;57119;52.516;13.508;2022-10-16T03:15:50;5.33;;;2.00;;
69822;SDS011;57119;52.516;13.508;2022-10-16T03:18:15;5.17;;;1.90;;
69822;SDS011;57119;52.516;13.508;2022-10-16T03:20:42;6.73;;;2.13;;
69822;SDS011;57119;52.516;13.508;2022-10-16T03:23:07;6.82;;;2.08;;
69822;SDS011;57119;52.516;13.508;2022-10-16T03:25:33;5.80;;;2.13;;
69822;SDS011;57119;52.516;13.508;2022-10-16T03:27:59;5.50;;;2.00;;
69822;SDS011;57119;52.516;13.508;2022-10-16T03:30:24;5.07;;;2.00;;
69822;SDS011;57119;52.516;13.508;2022-10-16T03:32:49;5.90;;;2.27;;
69822;SDS011;57119;52.516;13.508;2022-10-16T03:35:18;7.60;;;2.70;;
69822;SDS011;57119;52.516;13.508;2022-10-16T03:37:44;4.70;;;2.00;;
69822;SDS011;57119;52.516;13.508;2022-10-16T03:40:09;5.33;;;2.17;;
69822;SDS011;57119;52.516;13.508;2022-10-16T03:42:35;4.50;;;2.03;;
69822;SDS011;57119;52.516;13.508;2022-10-16T03:45:00;5.10;;;2.50;;
69822;SDS011;57119;52.516;13.508;2022-10-16T03:47:26;6.03;;;2.20;;
69822;SDS011;57119;52.516;13.508;2022-10-16T03:49:51;6.47;;;1.97;;
69822;SDS011;57119;52.516;13.508;2022-10-16T03:52:16;5.67;;;2.30;;
69822;SDS011;57119;52.516;13.508;2022-10-16T03:54:42;6.43;;;2.17;;
69822;SDS011;57119;52.516;13.508;2022-10-16T03:57:07;4.93;;;2.37;;
69822;SDS011;57119;52.516;13.508;2022-10-16T03:59:32;5.32;;;2.47;;
69822;SDS011;57119;52.516;13.508;2022-10-16T04:01:58;5.63;;;2.37;;
69822;SDS011;57119;52.516;13.508;2022-10-16T04:04:23;5.00;;;2.13;;
69822;SDS011;57119;52.516;13.508;2022-10-16T04:06:49;5.50;;;2.60;;
69822;SDS011;57119;52.516;13.508;2022-10-16T04:09:15;7.77;;;2.37;;
69822;SDS011;57119;52.516;13.508;2022-10-16T04:11:40;5.77;;;2.57;;
69822;SDS011;57119;52.516;13.508;2022-10-16T04:14:05;6.10;;;2.70;;
69822;SDS011;57119;52.516;13.508;2022-10-16T04:16:31;6.83;;;2.70;;
69822;SDS011;57119;52.516;13.508;2022-10-16T04:18:56;6.87;;;2.40;;
69822;SDS011;57119;52.516;13.508;2022-10-16T04:21:21;5.20;;;2.43;;
69822;SDS011;57119;52.516;13.508;2022-10-16T04:23:47;5.28;;;2.45;;
69822;SDS011;57119;52.516;13.508;2022-10-16T04:26:12;5.30;;;2.50;;
69822;SDS011;57119;52.516;13.508;2022-10-16T04:28:38;5.80;;;2.63;;
69822;SDS011;57119;52.516;13.508;2022-10-16T04:31:04;6.35;;;2.53;;
69822;SDS011;57119;52.516;13.508;2022-10-16T04:33:30;5.87;;;2.47;;
69822;SDS011;57119;52.516;13.508;2022-10-16T04:36:01;5.65;;;2.53;;
69822;SDS011;57119;52.516;13.508;2022-10-16T04:38:27;10.10;;;3.00;;
69822;SDS011;57119;52.516;13.508;2022-10-16T04:40:53;5.40;;;2.40;;
69822;SDS011;57119;52.516;13.508;2022-10-16T04:43:18;6.27;;;2.97;;
69822;SDS011;57119;52.516;13.508;2022-10-16T04:45:44;7.33;;;2.50;;
69822;SDS011;57119;52.516;13.508;2022-10-16T04:48:09;5.10;;;2.30;;
69822;SDS011;57119;52.516;13.508;2022-10-16T04:50:34;5.63;;;2.53;;
69822;SDS011;57119;52.516;13.508;2022-10-16T04:52:59;5.03;;;2.53;;
69822;SDS011;57119;52.516;13.508;2022-10-16T04:55:25;6.10;;;2.60;;
69822;SDS011;57119;52.516;13.508;2022-10-16T04:57:50;7.40;;;2.47;;
69822;SDS011;57119;52.516;13.508;2022-10-16T05:00:16;5.20;;;2.17;;
69822;SDS011;57119;52.516;13.508;2022-10-16T05:02:41;5.80;;;2.50;;
69822;SDS011;57119;52.516;13.508;2022-10-16T05:05:06;6.33;;;2.50;;
69822;SDS011;57119;52.516;13.508;2022-10-16T05:07:32;4.88;;;2.08;;
69822;SDS011;57119;52.516;13.508;2022-10-16T05:09:57;6.87;;;2.53;;
69822;SDS011;57119;52.516;13.508;2022-10-16T05:12:22;7.03;;;2.50;;
69822;SDS011;57119;52.516;13.508;2022-10-16T05:14:48;6.67;;;2.40;;
69822;SDS011;57119;52.516;13.508;2022-10-16T05:17:13;5.90;;;2.60;;
69822;SDS011;57119;52.516;13.508;2022-10-16T05:19:39;5.57;;;3.00;;
69822;SDS011;57119;52.516;13.508;2022-10-16T05:22:04;6.07;;;2.77;;
69822;SDS011;57119;52.516;13.508;2022-10-16T05:24:30;6.05;;;2.90;;
69822;SDS011;57119;52.516;13.508;2022-10-16T05:26:55;5.57;;;2.67;;
69822;SDS011;57119;52.516;13.508;2022-10-16T05:29:21;6.20;;;2.90;;
69822;SDS011;57119;52.516;13.508;2022-10-16T05:31:46;5.90;;;2.80;;
69822;SDS011;57119;52.516;13.508;2022-10-16T05:34:14;7.80;;;3.65;;
69822;SDS011;57119;52.516;13.508;2022-10-16T05:36:39;6.10;;;3.10;;
69822;SDS011;57119;52.516;13.508;2022-10-16T05:39:05;6.33;;;3.20;;
69822;SDS011;57119;52.516;13.508;2022-10-16T05:41:34;7.32;;;3.20;;
69822;SDS011;57119;52.516;13.508;2022-10-16T05:43:59;6.33;;;2.90;;
69822;SDS011;57119;52.516;13.508;2022-10-16T05:46:24;6.20;;;2.90;;
69822;SDS011;57119;52.516;13.508;2022-10-16T05:48:51;7.10;;;2.70;;
69822;SDS011;57119;52.516;13.508;2022-10-16T05:51:18;6.53;;;2.90;;
69822;SDS011;57119;52.516;13.508;2022-10-16T05:53:43;6.67;;;3.27;;
69822;SDS011;57119;52.516;13.508;2022-10-16T05:56:09;7.57;;;2.97;;
69822;SDS011;57119;52.516;13.508;2022-10-16T05:58:36;6.22;;;2.97;;
69822;SDS011;57119;52.516;13.508;2022-10-16T06:01:04;6.50;;;3.22;;
69822;SDS011;57119;52.516;13.508;2022-10-16T06:03:32;8.70;;;2.97;;
69822;SDS011;57119;52.516;13.508;2022-10-16T06:05:58;6.17;;;3.10;;
69822;SDS011;57119;52.516;13.508;2022-10-16T06:08:24;7.07;;;3.28;;
69822;SDS011;57119;52.516;13.508;2022-10-16T06:10:59;6.90;;;3.30;;
69822;SDS011;57119;52.516;13.508;2022-10-16T06:13:28;7.18;;;3.22;;
69822;SDS011;57119;52.516;13.508;2022-10-16T06:15:56;7.07;;;3.17;;
69822;SDS011;57119;52.516;13.508;2022-10-16T06:18:22;6.88;;;3.35;;
69822;SDS011;57119;52.516;13.508;2022-10-16T06:20:47;7.80;;;3.27;;
69822;SDS011;57119;52.516;13.508;2022-10-16T06:23:12;6.67;;;2.80;;
69822;SDS011;57119;52.516;13.508;2022-10-16T06:25:38;7.07;;;3.10;;
69822;SDS011;57119;52.516;13.508;2022-10-16T06:28:03;5.80;;;2.70;;
69822;SDS011;57119;52.516;13.508;2022-10-16T06:30:28;5.60;;;2.90;;
69822;SDS011;57119;52.516;13.508;2022-10-16T06:32:53;7.67;;;2.67;;
69822;SDS011;57119;52.516;13.508;2022-10-16T06:35:19;5.70;;;2.50;;
69822;SDS011;57119;52.516;13.508;2022-10-16T06:37:45;5.83;;;2.60;;
69822;SDS011;57119;52.516;13.508;2022-10-16T06:40:10;5.88;;;2.78;;
69822;SDS011;57119;52.516;13.508;2022-10-16T06:42:35;6.23;;;2.07;;
69822;SDS011;57119;52.516;13.508;2022-10-16T06:45:01;7.50;;;3.07;;
69822;SDS011;57119;52.516;13.508;2022-10-16T06:47:26;5.93;;;2.80;;
69822;SDS011;57119;52.516;13.508;2022-10-16T06:49:52;5.88;;;2.67;;
69822;SDS011;57119;52.516;13.508;2022-10-16T06:52:17;8.67;;;2.83;;
69822;SDS011;57119;52.516;13.508;2022-10-16T06:54:42;5.33;;;2.73;;
69822;SDS011;57119;52.516;13.508;2022-10-16T06:57:08;8.50;;;2.97;;
69822;SDS011;57119;52.516;13.508;2022-10-16T06:59:33;5.90;;;2.57;;
69822;SDS011;57119;52.516;13.508;2022-10-16T07:01:58;5.63;;;2.77;;
69822;SDS011;57119;52.516;13.508;2022-10-16T07:04:24;7.37;;;2.50;;
69822;SDS011;57119;52.516;13.508;2022-10-16T07:06:49;5.57;;;2.73;;
69822;SDS011;57119;52.516;13.508;2022-10-16T07:09:16;6.80;;;2.60;;
69822;SDS011;57119;52.516;13.508;2022-10-16T07:11:41;7.03;;;2.92;;
69822;SDS011;57119;52.516;13.508;2022-10-16T07:14:14;5.17;;;2.47;;
69822;SDS011;57119;52.516;13.508;2022-10-16T07:16:41;5.90;;;2.50;;
69822;SDS011;57119;52.516;13.508;2022-10-16T07:19:07;5.97;;;2.47;;
69822;SDS011;57119;52.516;13.508;2022-10-16T07:21:33;5.88;;;2.20;;
69822;SDS011;57119;52.516;13.508;2022-10-16T07:24:03;5.03;;;2.40;;
69822;SDS011;57119;52.516;13.508;2022-10-16T07:26:31;5.57;;;2.10;;
69822;SDS011;57119;52.516;13.508;2022-10-16T07:28:58;6.47;;;2.25;;
69822;SDS011;57119;52.516;13.508;2022-10-16T07:31:23;5.30;;;2.30;;
69822;SDS011;57119;52.516;13.508;2022-10-16T07:33:49;7.28;;;2.22;;
69822;SDS011;57119;52.516;13.508;2022-10-16T07:36:16;4.23;;;2.03;;
69822;SDS011;57119;52.516;13.508;2022-10-16T07:38:42;5.15;;;2.33;;
69822;SDS011;57119;52.516;13.508;2022-10-16T07:41:09;5.70;;;1.98;;
69822;SDS011;57119;52.516;13.508;2022-10-16T07:43:39;4.73;;;1.93;;
69822;SDS011;57119;52.516;13.508;2022-10-16T07:46:05;5.32;;;2.00;;
69822;SDS011;57119;52.516;13.508;2022-10-16T07:48:32;4.45;;;2.17;;
69822;SDS011;57119;52.516;13.508;2022-10-16T07:51:03;4.90;;;2.23;;
69822;SDS011;57119;52.516;13.508;2022-10-16T07:53:29;5.15;;;2.20;;
69822;SDS011;57119;52.516;13.508;2022-10-16T07:56:03;4.25;;;1.92;;
69822;SDS011;57119;52.516;13.508;2022-10-16T07:58:30;5.10;;;1.98;;
69822;SDS011;57119;52.516;13.508;2022-10-16T08:00:56;5.55;;;2.00;;
69822;SDS011;57119;52.516;13.508;2022-10-16T08:03:22;5.37;;;1.80;;
69822;SDS011;57119;52.516;13.508;2022-10-16T08:05:48;4.32;;;1.50;;
69822;SDS011;57119;52.516;13.508;2022-10-16T08:08:14;5.23;;;2.13;;
69822;SDS011;57119;52.516;13.508;2022-10-16T08:10:40;7.68;;;1.90;;
69822;SDS011;57119;52.516;13.508;2022-10-16T08:13:06;3.83;;;1.50;;
69822;SDS011;57119;52.516;13.508;2022-10-16T08:15:31;4.80;;;1.60;;
69822;SDS011;57119;52.516;13.508;2022-10-16T08:17:57;6.23;;;2.17;;
69822;SDS011;57119;52.516;13.508;2022-10-16T08:20:25;4.97;;;1.83;;
69822;SDS011;57119;52.516;13.508;2022-10-16T08:22:51;5.38;;;1.83;;
69822;SDS011;57119;52.516;13.508;2022-10-16T08:25:17;3.97;;;1.63;;
69822;SDS011;57119;52.516;13.508;2022-10-16T08:27:42;3.73;;;1.60;;
69822;SDS011;57119;52.516;13.508;2022-10-16T08:30:08;3.90;;;1.43;;
69822;SDS011;57119;52.516;13.508;2022-10-16T08:32:34;4.03;;;1.60;;
69822;SDS011;57119;52.516;13.508;2022-10-16T08:34:59;4.20;;;1.53;;
69822;SDS011;57119;52.516;13.508;2022-10-16T08:37:24;3.47;;;1.47;;
69822;SDS011;57119;52.516;13.508;2022-10-16T08:39:50;7.80;;;1.42;;
69822;SDS011;57119;52.516;13.508;2022-10-16T08:47:25;5.28;;;1.42;;
69822;SDS011;57119;52.516;13.508;2022-10-16T08:50:11;3.33;;;1.20;;
69822;SDS011;57119;52.516;13.508;2022-10-16T08:52:40;4.03;;;1.33;;
69822;SDS011;57119;52.516;13.508;2022-10-16T08:55:16;5.53;;;1.58;;
69822;SDS011;57119;52.516;13.508;2022-10-16T08:58:09;4.03;;;1.40;;
69822;SDS011;57119;52.516;13.508;2022-10-16T09:00:38;6.50;;;1.80;;
69822;SDS011;57119;52.516;13.508;2022-10-16T09:06:05;3.92;;;1.63;;
69822;SDS011;57119;52.516;13.508;2022-10-16T09:11:26;6.65;;;1.42;;
69822;SDS011;57119;52.516;13.508;2022-10-16T09:13:58;4.72;;;1.70;;
69822;SDS011;57119;52.516;13.508;2022-10-16T09:16:30;4.40;;;1.90;;
69822;SDS011;57119;52.516;13.508;2022-10-16T09:19:03;4.47;;;1.60;;
69822;SDS011;57119;52.516;13.508;2022-10-16T09:21:41;3.88;;;1.50;;
69822;SDS011;57119;52.516;13.508;2022-10-16T09:24:13;4.72;;;1.65;;
69822;SDS011;57119;52.516;13.508;2022-10-16T09:26:40;4.95;;;1.83;;
69822;SDS011;57119;52.516;13.508;2022-10-16T09:29:06;5.73;;;1.57;;
69822;SDS011;57119;52.516;13.508;2022-10-16T09:31:38;4.47;;;2.08;;
69822;SDS011;57119;52.516;13.508;2022-10-16T09:34:03;6.25;;;2.08;;
69822;SDS011;57119;52.516;13.508;2022-10-16T09:36:32;3.77;;;1.70;;
69822;SDS011;57119;52.516;13.508;2022-10-16T09:39:05;3.72;;;1.88;;
69822;SDS011;57119;52.516;13.508;2022-10-16T09:41:36;4.50;;;1.98;;
69822;SDS011;57119;52.516;13.508;2022-10-16T09:44:26;5.07;;;1.95;;
69822;SDS011;57119;52.516;13.508;2022-10-16T09:47:01;5.00;;;1.88;;
69822;SDS011;57119;52.516;13.508;2022-10-16T09:49:29;4.50;;;2.23;;
69822;SDS011;57119;52.516;13.508;2022-10-16T09:52:04;4.43;;;1.63;;
69822;SDS011;57119;52.516;13.508;2022-10-16T09:54:57;3.77;;;1.63;;
69822;SDS011;57119;52.516;13.508;2022-10-16T09:57:23;4.65;;;1.80;;
69822;SDS011;57119;52.516;13.508;2022-10-16T09:59:50;4.20;;;1.55;;
69822;SDS011;57119;52.516;13.508;2022-10-16T10:02:18;3.30;;;1.50;;
69822;SDS011;57119;52.516;13.508;2022-10-16T10:04:51;6.43;;;1.85;;
69822;SDS011;57119;52.516;13.508;2022-10-16T10:07:33;4.80;;;1.90;;
69822;SDS011;57119;52.516;13.508;2022-10-16T10:10:04;4.78;;;2.15;;
69822;SDS011;57119;52.516;13.508;2022-10-16T10:12:32;5.60;;;1.77;;
69822;SDS011;57119;52.516;13.508;2022-10-16T10:15:07;4.97;;;1.85;;
69822;SDS011;57119;52.516;13.508;2022-10-16T10:17:45;4.10;;;1.60;;
69822;SDS011;57119;52.516;13.508;2022-10-16T10:22:48;4.07;;;1.67;;
69822;SDS011;57119;52.516;13.508;2022-10-16T10:33:18;4.50;;;1.60;;
69822;SDS011;57119;52.516;13.508;2022-10-16T10:38:52;5.35;;;2.58;;
69822;SDS011;57119;52.516;13.508;2022-10-16T10:43:54;5.10;;;1.93;;
69822;SDS011;57119;52.516;13.508;2022-10-16T10:46:48;4.32;;;2.22;;
69822;SDS011;57119;52.516;13.508;2022-10-16T10:49:20;6.40;;;2.10;;
69822;SDS011;57119;52.516;13.508;2022-10-16T10:52:13;3.67;;;2.00;;
69822;SDS011;57119;52.516;13.508;2022-10-16T10:55:00;4.22;;;1.60;;
69822;SDS011;57119;52.516;13.508;2022-10-16T11:08:47;6.18;;;3.10;;
69822;SDS011;57119;52.516;13.508;2022-10-16T11:11:23;5.07;;;1.73;;
69822;SDS011;57119;52.516;13.508;2022-10-16T11:14:02;3.90;;;2.10;;
69822;SDS011;57119;52.516;13.508;2022-10-16T11:16:54;4.15;;;1.83;;
69822;SDS011;57119;52.516;13.508;2022-10-16T11:22:27;4.50;;;1.88;;
69822;SDS011;57119;52.516;13.508;2022-10-16T11:27:43;4.90;;;1.67;;
69822;SDS011;57119;52.516;13.508;2022-10-16T11:30:14;5.00;;;1.80;;
69822;SDS011;57119;52.516;13.508;2022-10-16T11:35:46;4.28;;;1.70;;
69822;SDS011;57119;52.516;13.508;2022-10-16T11:40:45;4.43;;;2.30;;
69822;SDS011;57119;52.516;13.508;2022-10-16T11:45:57;5.88;;;1.85;;
69822;SDS011;57119;52.516;13.508;2022-10-16T11:53:53;4.47;;;2.17;;
69822;SDS011;57119;52.516;13.508;2022-10-16T11:56:24;3.08;;;1.60;;
69822;SDS011;57119;52.516;13.508;2022-10-16T11:59:07;4.35;;;1.42;;
69822;SDS011;57119;52.516;13.508;2022-10-16T12:01:46;3.88;;;1.73;;
69822;SDS011;57119;52.516;13.508;2022-10-16T12:07:09;2.92;;;1.35;;
69822;SDS011;57119;52.516;13.508;2022-10-16T12:09:41;3.50;;;1.63;;
69822;SDS011;57119;52.516;13.508;2022-10-16T12:12:27;3.30;;;1.90;;
69822;SDS011;57119;52.516;13.508;2022-10-16T12:15:23;3.55;;;1.98;;
69822;SDS011;57119;52.516;13.508;2022-10-16T12:17:53;5.40;;;3.57;;
69822;SDS011;57119;52.516;13.508;2022-10-16T12:20:21;5.15;;;3.50;;
69822;SDS011;57119;52.516;13.508;2022-10-16T12:22:53;5.93;;;2.90;;
69822;SDS011;57119;52.516;13.508;2022-10-16T12:25:30;4.78;;;2.38;;
69822;SDS011;57119;52.516;13.508;2022-10-16T12:28:16;4.00;;;2.42;;
69822;SDS011;57119;52.516;13.508;2022-10-16T12:33:21;5.05;;;3.13;;
69822;SDS011;57119;52.516;13.508;2022-10-16T12:35:49;4.00;;;2.35;;
69822;SDS011;57119;52.516;13.508;2022-10-16T12:38:19;5.00;;;3.23;;
69822;SDS011;57119;52.516;13.508;2022-10-16T12:40:47;5.30;;;2.58;;
69822;SDS011;57119;52.516;13.508;2022-10-16T12:48:35;4.68;;;2.83;;
69822;SDS011;57119;52.516;13.508;2022-10-16T13:18:42;3.95;;;2.60;;
69822;SDS011;57119;52.516;13.508;2022-10-16T13:24:17;4.57;;;2.90;;
69822;SDS011;57119;52.516;13.508;2022-10-16T13:29:53;3.75;;;2.50;;
69822;SDS011;57119;52.516;13.508;2022-10-16T13:32:25;5.28;;;3.00;;
69822;SDS011;57119;52.516;13.508;2022-10-16T13:34:58;3.80;;;1.73;;
69822;SDS011;57119;52.516;13.508;2022-10-16T13:37:25;3.67;;;1.20;;
69822;SDS011;57119;52.516;13.508;2022-10-16T13:40:01;2.78;;;1.30;;
69822;SDS011;57119;52.516;13.508;2022-10-16T13:42:32;12.67;;;1.60;;
69822;SDS011;57119;52.516;13.508;2022-10-16T13:44:58;5.10;;;2.67;;
69822;SDS011;57119;52.516;13.508;2022-10-16T13:47:24;4.70;;;3.37;;
69822;SDS011;57119;52.516;13.508;2022-10-16T13:50:05;4.55;;;3.05;;
69822;SDS011;57119;52.516;13.508;2022-10-16T13:52:36;4.30;;;2.80;;
69822;SDS011;57119;52.516;13.508;2022-10-16T13:55:03;5.22;;;2.22;;
69822;SDS011;57119;52.516;13.508;2022-10-16T13:57:29;4.82;;;2.38;;
69822;SDS011;57119;52.516;13.508;2022-10-16T13:59:54;4.57;;;2.40;;
69822;SDS011;57119;52.516;13.508;2022-10-16T14:04:49;4.50;;;2.40;;
69822;SDS011;57119;52.516;13.508;2022-10-16T14:07:16;2.83;;;1.27;;
69822;SDS011;57119;52.516;13.508;2022-10-16T14:09:48;5.35;;;1.55;;
69822;SDS011;57119;52.516;13.508;2022-10-16T14:12:16;3.42;;;1.63;;
69822;SDS011;57119;52.516;13.508;2022-10-16T14:14:42;4.67;;;2.40;;
69822;SDS011;57119;52.516;13.508;2022-10-16T14:17:13;4.40;;;1.50;;
69822;SDS011;57119;52.516;13.508;2022-10-16T14:19:40;4.60;;;2.58;;
69822;SDS011;57119;52.516;13.508;2022-10-16T14:22:17;3.63;;;2.27;;
69822;SDS011;57119;52.516;13.508;2022-10-16T14:25:16;3.80;;;2.33;;
69822;SDS011;57119;52.516;13.508;2022-10-16T14:28:01;4.13;;;2.70;;
69822;SDS011;57119;52.516;13.508;2022-10-16T14:30:54;5.03;;;2.58;;
69822;SDS011;57119;52.516;13.508;2022-10-16T14:33:24;4.00;;;2.28;;
69822;SDS011;57119;52.516;13.508;2022-10-16T14:36:01;5.63;;;2.60;;
69822;SDS011;57119;52.516;13.508;2022-10-16T14:38:29;5.13;;;2.28;;
69822;SDS011;57119;52.516;13.508;2022-10-16T14:40:57;3.60;;;1.35;;
69822;SDS011;57119;52.516;13.508;2022-10-16T14:43:33;3.50;;;1.30;;
69822;SDS011;57119;52.516;13.508;2022-10-16T14:46:01;4.97;;;2.10;;
69822;SDS011;57119;52.516;13.508;2022-10-16T14:48:28;3.90;;;1.90;;
69822;SDS011;57119;52.516;13.508;2022-10-16T14:50:54;3.53;;;1.92;;
69822;SDS011;57119;52.516;13.508;2022-10-16T14:53:20;4.93;;;2.40;;
69822;SDS011;57119;52.516;13.508;2022-10-16T14:55:45;5.73;;;2.20;;
69822;SDS011;57119;52.516;13.508;2022-10-16T14:58:17;4.27;;;1.50;;
69822;SDS011;57119;52.516;13.508;2022-10-16T15:00:46;4.68;;;1.20;;
69822;SDS011;57119;52.516;13.508;2022-10-16T15:03:12;2.88;;;1.27;;
69822;SDS011;57119;52.516;13.508;2022-10-16T15:05:37;3.80;;;1.43;;
69822;SDS011;57119;52.516;13.508;2022-10-16T15:08:03;3.60;;;1.60;;
69822;SDS011;57119;52.516;13.508;2022-10-16T15:10:29;4.85;;;1.30;;
69822;SDS011;57119;52.516;13.508;2022-10-16T15:12:57;4.25;;;1.33;;
69822;SDS011;57119;52.516;13.508;2022-10-16T15:17:51;5.37;;;1.50;;
69822;SDS011;57119;52.516;13.508;2022-10-16T15:20:20;3.60;;;1.60;;
69822;SDS011;57119;52.516;13.508;2022-10-16T15:22:45;7.67;;;1.33;;
69822;SDS011;57119;52.516;13.508;2022-10-16T15:25:54;3.77;;;1.00;;
69822;SDS011;57119;52.516;13.508;2022-10-16T15:28:07;3.83;;;1.25;;
69822;SDS011;57119;52.516;13.508;2022-10-16T15:30:33;2.92;;;1.10;;
69822;SDS011;57119;52.516;13.508;2022-10-16T15:32:59;4.45;;;1.48;;
69822;SDS011;57119;52.516;13.508;2022-10-16T15:35:25;4.30;;;1.23;;
69822;SDS011;57119;52.516;13.508;2022-10-16T15:37:50;3.40;;;1.25;;
69822;SDS011;57119;52.516;13.508;2022-10-16T15:40:16;3.33;;;1.13;;
69822;SDS011;57119;52.516;13.508;2022-10-16T15:42:43;4.88;;;1.45;;
69822;SDS011;57119;52.516;13.508;2022-10-16T15:45:09;4.77;;;1.40;;
69822;SDS011;57119;52.516;13.508;2022-10-16T15:47:35;4.10;;;1.23;;
69822;SDS011;57119;52.516;13.508;2022-10-16T15:50:01;4.57;;;1.30;;
69822;SDS011;57119;52.516;13.508;2022-10-16T15:52:26;3.10;;;1.10;;
69822;SDS011;57119;52.516;13.508;2022-10-16T15:54:53;5.60;;;1.70;;
69822;SDS011;57119;52.516;13.508;2022-10-16T15:57:19;3.60;;;1.00;;
69822;SDS011;57119;52.516;13.508;2022-10-16T15:59:44;6.47;;;1.57;;
69822;SDS011;57119;52.516;13.508;2022-10-16T16:02:09;5.07;;;1.43;;
69822;SDS011;57119;52.516;13.508;2022-10-16T16:04:35;4.77;;;1.07;;
69822;SDS011;57119;52.516;13.508;2022-10-16T16:07:00;5.73;;;1.37;;
69822;SDS011;57119;52.516;13.508;2022-10-16T16:09:26;4.53;;;1.58;;
69822;SDS011;57119;52.516;13.508;2022-10-16T16:11:54;4.95;;;1.35;;
69822;SDS011;57119;52.516;13.508;2022-10-16T16:14:20;6.35;;;2.03;;
69822;SDS011;57119;52.516;13.508;2022-10-16T16:16:45;4.93;;;2.00;;
69822;SDS011;57119;52.516;13.508;2022-10-16T16:19:10;5.77;;;1.60;;
69822;SDS011;57119;52.516;13.508;2022-10-16T16:21:36;7.43;;;1.50;;
69822;SDS011;57119;52.516;13.508;2022-10-16T16:24:01;4.97;;;1.50;;
69822;SDS011;57119;52.516;13.508;2022-10-16T16:26:32;4.65;;;1.63;;
69822;SDS011;57119;52.516;13.508;2022-10-16T16:29:02;7.13;;;2.10;;
69822;SDS011;57119;52.516;13.508;2022-10-16T16:31:31;5.70;;;1.80;;
69822;SDS011;57119;52.516;13.508;2022-10-16T16:33:58;5.43;;;1.85;;
69822;SDS011;57119;52.516;13.508;2022-10-16T16:36:24;5.87;;;2.10;;
69822;SDS011;57119;52.516;13.508;2022-10-16T16:38:50;5.55;;;1.90;;